Time;durP1;ratioP1;P1;durP2;ratioP2;P2;SDS_P1;SDS_P2;PMS_P1;PMS_P2;Temp;Humidity;BMP_temperature;BMP_pressure;BME280_temperature;BME280_humidity;BME280_pressure;Samples;Min_cycle;Max_cycle;Signal;HPM_P1;HPM_P2
2021/10/08 00:02:08;;;;;;;13.13;10.45;;;10.10;86.20;;;;;;5115203;28;20047;-77
2021/10/08 00:04:35;;;;;;;17.75;12.10;;;10.10;86.20;;;;;;5115369;28;20055;-76
2021/10/08 00:07:01;;;;;;;16.58;11.55;;;10.10;86.30;;;;;;5096929;28;20066;-76
2021/10/08 00:09:29;;;;;;;14.32;10.18;;;10.00;86.30;;;;;;5115171;28;20016;-77
2021/10/08 00:11:56;;;;;;;18.13;11.15;;;10.00;86.20;;;;;;5096751;28;20027;-77
2021/10/08 00:14:23;;;;;;;17.48;11.65;;;10.00;86.30;;;;;;5096910;28;20032;-77
2021/10/08 00:16:49;;;;;;;15.43;11.43;;;10.00;86.30;;;;;;5096739;28;20027;-77
2021/10/08 00:19:15;;;;;;;16.88;11.95;;;10.00;86.30;;;;;;5096706;28;20023;-77
2021/10/08 00:21:41;;;;;;;18.50;12.10;;;9.90;86.20;;;;;;5114819;28;20031;-77
2021/10/08 00:24:07;;;;;;;17.13;12.13;;;9.90;86.20;;;;;;5114930;28;20027;-77
2021/10/08 00:26:32;;;;;;;17.83;12.05;;;9.90;86.20;;;;;;5114901;28;20037;-77
2021/10/08 00:28:58;;;;;;;18.10;12.50;;;9.90;86.20;;;;;;5096444;28;20024;-77
2021/10/08 00:31:24;;;;;;;16.55;12.02;;;9.90;86.20;;;;;;5114625;28;20027;-77
2021/10/08 00:33:49;;;;;;;16.58;12.45;;;9.90;86.20;;;;;;5114622;28;20116;-77
2021/10/08 00:36:15;;;;;;;18.85;12.98;;;9.90;86.30;;;;;;5096380;28;20032;-77
2021/10/08 00:38:41;;;;;;;15.73;11.93;;;9.80;86.30;;;;;;5096264;28;20028;-77
2021/10/08 00:41:07;;;;;;;18.10;12.98;;;9.80;86.30;;;;;;5096144;28;20134;-77
2021/10/08 00:43:34;;;;;;;17.88;12.82;;;9.80;86.30;;;;;;5096052;28;20562;-77
2021/10/08 00:46:01;;;;;;;16.83;11.57;;;9.80;86.30;;;;;;5096059;28;20034;-76
2021/10/08 00:48:26;;;;;;;16.38;11.38;;;9.80;86.30;;;;;;5096177;28;20082;-77
2021/10/08 00:50:52;;;;;;;14.02;10.82;;;9.70;86.20;;;;;;5114307;28;20028;-77
2021/10/08 00:53:19;;;;;;;13.95;10.60;;;9.70;86.20;;;;;;5095825;28;20078;-77
2021/10/08 00:55:48;;;;;;;15.50;11.43;;;9.70;86.20;;;;;;5113875;28;20042;-77
2021/10/08 00:58:15;;;;;;;18.20;10.98;;;9.60;86.30;;;;;;5096035;28;20387;-77
2021/10/08 01:00:42;;;;;;;17.60;11.70;;;9.60;86.90;;;;;;5114237;28;20089;-77
2021/10/08 01:03:09;;;;;;;18.20;11.52;;;9.60;86.30;;;;;;5114017;28;20491;-77
2021/10/08 01:05:36;;;;;;;17.73;12.07;;;9.60;86.40;;;;;;5114025;28;20053;-77
2021/10/08 01:08:02;;;;;;;16.75;11.88;;;9.50;86.20;;;;;;5113845;28;20483;-77
2021/10/08 01:10:27;;;;;;;18.63;12.07;;;9.50;86.20;;;;;;5114124;28;20027;-77
2021/10/08 01:12:53;;;;;;;16.80;12.18;;;9.50;86.20;;;;;;5113910;28;20034;-77
2021/10/08 01:15:19;;;;;;;18.50;11.77;;;9.40;86.20;;;;;;5095532;28;20023;-76
2021/10/08 01:17:44;;;;;;;15.32;10.90;;;9.50;86.30;;;;;;5095654;28;20087;-76
2021/10/08 01:20:12;;;;;;;17.35;11.60;;;9.40;86.20;;;;;;5095589;28;20027;-76
2021/10/08 01:22:38;;;;;;;16.58;11.43;;;9.40;86.20;;;;;;5113548;28;20095;-77
2021/10/08 01:25:07;;;;;;;14.60;10.65;;;9.40;86.20;;;;;;5095435;28;20074;-76
2021/10/08 01:27:32;;;;;;;15.98;11.55;;;9.40;86.20;;;;;;5095406;28;20387;-77
2021/10/08 01:29:59;;;;;;;16.52;11.25;;;9.40;86.20;;;;;;5095411;28;20078;-77
2021/10/08 01:32:27;;;;;;;16.70;11.73;;;9.40;86.20;;;;;;5113698;28;20031;-77
2021/10/08 01:34:53;;;;;;;16.77;11.43;;;9.30;86.10;;;;;;5095121;28;20036;-77
2021/10/08 01:37:19;;;;;;;15.82;10.98;;;9.30;86.20;;;;;;5113530;28;20050;-77
2021/10/08 01:39:46;;;;;;;15.70;10.82;;;9.30;86.10;;;;;;5113572;28;20032;-77
2021/10/08 01:42:12;;;;;;;15.50;10.93;;;9.30;86.10;;;;;;5095171;28;20019;-77
2021/10/08 01:44:38;;;;;;;16.67;11.05;;;9.20;86.10;;;;;;5095411;28;20069;-77
2021/10/08 01:47:05;;;;;;;15.77;11.13;;;9.20;86.10;;;;;;5095202;28;20392;-77
2021/10/08 01:49:30;;;;;;;15.45;10.65;;;9.20;86.10;;;;;;5095367;28;20031;-77
2021/10/08 01:51:57;;;;;;;13.90;10.30;;;9.20;86.00;;;;;;5095071;28;20046;-77
2021/10/08 01:54:22;;;;;;;17.75;11.40;;;9.20;86.00;;;;;;5095027;28;20062;-77
2021/10/08 01:56:48;;;;;;;16.73;11.38;;;9.20;86.00;;;;;;5095139;28;20027;-77
2021/10/08 01:59:14;;;;;;;17.08;11.25;;;9.20;86.60;;;;;;5113330;28;20036;-77
2021/10/08 02:01:41;;;;;;;17.77;12.05;;;9.10;86.00;;;;;;5095006;28;20031;-77
2021/10/08 02:04:07;;;;;;;19.73;12.55;;;9.10;86.00;;;;;;5095040;28;20509;-77
2021/10/08 02:06:33;;;;;;;18.83;11.85;;;9.10;86.00;;;;;;5095173;28;20064;-77
2021/10/08 02:08:58;;;;;;;16.92;11.45;;;9.10;85.90;;;;;;5117524;28;20028;-77
2021/10/08 02:11:24;;;;;;;18.58;11.48;;;9.10;85.90;;;;;;5117357;28;20034;-77
2021/10/08 02:13:50;;;;;;;18.63;11.30;;;9.10;86.00;;;;;;5117433;28;20446;-77
2021/10/08 02:16:15;;;;;;;16.83;11.10;;;9.10;86.00;;;;;;5099014;28;20035;-76
2021/10/08 02:18:41;;;;;;;16.88;11.48;;;9.10;85.90;;;;;;5099006;28;20031;-76
2021/10/08 02:21:07;;;;;;;16.83;11.88;;;9.00;85.90;;;;;;5098990;28;20031;-76
2021/10/08 02:23:33;;;;;;;19.60;12.50;;;9.00;85.90;;;;;;5098784;28;20027;-77
2021/10/08 02:25:58;;;;;;;19.13;12.57;;;9.00;86.00;;;;;;5117254;28;20036;-77
2021/10/08 02:28:24;;;;;;;19.17;11.95;;;9.00;86.00;;;;;;5098746;28;20055;-76
2021/10/08 02:30:50;;;;;;;20.10;12.20;;;9.00;86.00;;;;;;5117054;28;20020;-77
2021/10/08 02:33:16;;;;;;;18.17;11.68;;;9.00;86.00;;;;;;5098693;28;20080;-77
2021/10/08 02:35:41;;;;;;;17.65;11.63;;;9.00;85.90;;;;;;5098666;28;20027;-76
2021/10/08 02:38:07;;;;;;;16.30;11.20;;;8.90;85.80;;;;;;5098655;28;20027;-77
2021/10/08 02:40:33;;;;;;;19.05;11.32;;;8.90;85.90;;;;;;5098546;28;20126;-77
2021/10/08 02:42:59;;;;;;;15.88;10.95;;;8.90;85.90;;;;;;5098299;28;20028;-77
2021/10/08 02:45:25;;;;;;;19.52;12.27;;;8.90;85.90;;;;;;5098647;28;20020;-77
2021/10/08 02:47:51;;;;;;;20.63;12.82;;;8.90;85.90;;;;;;5098212;28;20027;-77
2021/10/08 02:50:17;;;;;;;17.90;11.38;;;8.90;85.90;;;;;;5116650;28;20027;-76
2021/10/08 02:52:43;;;;;;;17.42;11.57;;;8.90;85.90;;;;;;5098158;28;20096;-77
2021/10/08 02:55:09;;;;;;;17.50;11.68;;;8.90;85.90;;;;;;5116629;28;20421;-76
2021/10/08 02:57:38;;;;;;;17.40;11.57;;;8.90;85.80;;;;;;5116505;28;20027;-77
2021/10/08 03:00:07;;;;;;;16.75;11.43;;;8.90;85.80;;;;;;5098195;28;20034;-77
2021/10/08 03:02:32;;;;;;;18.13;11.80;;;8.90;85.80;;;;;;5116355;28;20061;-77
2021/10/08 03:04:58;;;;;;;17.63;11.20;;;8.90;85.80;;;;;;5098142;28;20028;-77
2021/10/08 03:07:24;;;;;;;16.38;11.27;;;8.90;85.70;;;;;;5095167;28;20122;-77
2021/10/08 03:09:49;;;;;;;16.52;10.90;;;8.90;85.70;;;;;;5116169;28;20051;-77
2021/10/08 03:12:15;;;;;;;17.55;11.50;;;8.90;85.70;;;;;;5098009;28;20050;-77
2021/10/08 03:14:41;;;;;;;17.65;11.30;;;8.80;85.70;;;;;;5097951;28;20059;-76
2021/10/08 03:17:07;;;;;;;17.92;11.38;;;8.80;85.70;;;;;;5097751;28;20173;-77
2021/10/08 03:19:32;;;;;;;17.85;10.45;;;8.80;85.70;;;;;;5097661;28;20101;-76
2021/10/08 03:21:58;;;;;;;20.38;10.85;;;8.80;85.70;;;;;;5116001;28;20035;-76
2021/10/08 03:24:24;;;;;;;16.88;10.60;;;8.80;85.70;;;;;;5115906;28;20030;-76
2021/10/08 03:26:50;;;;;;;16.13;10.50;;;8.80;85.80;;;;;;5097549;28;20386;-76
2021/10/08 03:29:15;;;;;;;16.10;10.48;;;8.70;85.80;;;;;;5097624;28;20577;-77
2021/10/08 03:31:41;;;;;;;16.17;10.88;;;8.70;85.80;;;;;;5115861;28;20059;-76
2021/10/08 03:34:06;;;;;;;15.27;10.35;;;8.70;85.80;;;;;;5097447;28;20035;-76
2021/10/08 03:39:00;;;;;;;15.15;10.13;;;8.60;85.80;;;;;;5116158;28;20036;-77
2021/10/08 03:41:26;;;;;;;15.98;10.48;;;8.70;85.90;;;;;;5097400;28;20558;-77
2021/10/08 03:43:55;;;;;;;17.08;10.75;;;8.60;85.90;;;;;;5097585;28;20122;-77
2021/10/08 03:46:21;;;;;;;15.43;10.75;;;8.60;85.90;;;;;;5097186;28;20028;-77
2021/10/08 03:51:18;;;;;;;15.40;10.57;;;8.60;86.00;;;;;;5115812;28;20036;-76
2021/10/08 03:53:43;;;;;;;17.20;11.15;;;8.60;86.00;;;;;;5097020;28;20104;-76
2021/10/08 03:56:09;;;;;;;17.10;10.73;;;8.60;86.00;;;;;;5097031;28;20024;-77
2021/10/08 03:58:34;;;;;;;15.13;10.80;;;8.60;86.00;;;;;;5096895;28;20016;-77
2021/10/08 04:01:00;;;;;;;16.98;10.40;;;8.60;86.00;;;;;;5096985;28;20024;-77
2021/10/08 04:03:28;;;;;;;15.35;11.02;;;8.60;86.10;;;;;;5115200;28;20027;-76
2021/10/08 04:05:54;;;;;;;16.65;10.35;;;8.50;86.00;;;;;;5115331;28;20467;-76
2021/10/08 04:08:19;;;;;;;15.70;10.10;;;8.60;86.10;;;;;;5096519;28;20027;-77
2021/10/08 04:10:45;;;;;;;15.05;9.85;;;8.50;86.10;;;;;;5115156;28;20028;-77
2021/10/08 04:13:10;;;;;;;16.08;10.48;;;8.50;86.00;;;;;;5096443;28;20172;-76
2021/10/08 04:15:36;;;;;;;15.75;10.55;;;8.50;86.10;;;;;;5096528;28;20027;-76
2021/10/08 04:18:02;;;;;;;14.02;10.05;;;8.50;86.10;;;;;;5096755;28;20024;-77
2021/10/08 04:20:28;;;;;;;14.77;10.07;;;8.50;86.80;;;;;;5096497;28;20039;-77
2021/10/08 04:22:53;;;;;;;15.98;9.88;;;8.50;86.20;;;;;;5114697;28;20371;-77
2021/10/08 04:25:19;;;;;;;15.98;10.40;;;8.50;86.20;;;;;;5096464;28;20444;-76
2021/10/08 04:27:44;;;;;;;13.85;10.02;;;8.50;86.20;;;;;;5096312;28;20069;-76
2021/10/08 04:30:10;;;;;;;12.52;9.15;;;8.40;86.20;;;;;;5095843;28;20024;-77
2021/10/08 04:32:36;;;;;;;13.15;8.68;;;8.40;86.30;;;;;;5114558;28;20038;-77
2021/10/08 04:35:01;;;;;;;12.35;9.02;;;8.40;86.20;;;;;;5096380;28;20027;-76
2021/10/08 04:37:27;;;;;;;12.27;8.73;;;8.40;86.30;;;;;;5096276;28;20156;-76
2021/10/08 04:39:52;;;;;;;13.30;9.13;;;8.40;86.40;;;;;;5114517;28;20034;-77
2021/10/08 04:42:19;;;;;;;12.85;8.43;;;8.40;86.40;;;;;;5114350;28;20120;-77
2021/10/08 04:44:45;;;;;;;12.15;8.30;;;8.40;86.40;;;;;;5114230;28;20093;-77
2021/10/08 04:47:12;;;;;;;12.15;8.13;;;8.40;86.40;;;;;;5114352;28;20098;-77
2021/10/08 04:49:38;;;;;;;10.82;7.78;;;8.40;86.40;;;;;;5096053;28;20027;-77
2021/10/08 04:52:04;;;;;;;8.90;7.40;;;8.40;86.40;;;;;;5096570;28;20475;-77
2021/10/08 04:54:30;;;;;;;9.05;6.95;;;8.40;86.50;;;;;;5096437;28;20038;-77
2021/10/08 04:56:55;;;;;;;10.02;7.65;;;8.40;86.50;;;;;;5114624;28;20043;-77
2021/10/08 04:59:21;;;;;;;11.40;7.82;;;8.40;86.40;;;;;;5114480;28;20470;-77
2021/10/08 05:01:46;;;;;;;9.95;6.78;;;8.40;86.40;;;;;;5114164;28;20133;-77
2021/10/08 05:04:12;;;;;;;11.05;7.78;;;8.40;86.50;;;;;;5096455;28;20065;-77
2021/10/08 05:06:38;;;;;;;11.35;8.02;;;8.30;86.40;;;;;;5096075;28;20462;-79
2021/10/08 05:09:03;;;;;;;10.85;7.88;;;8.30;86.40;;;;;;5096185;28;20024;-78
2021/10/08 05:11:29;;;;;;;11.60;8.05;;;8.30;86.40;;;;;;5098731;28;20023;-78
2021/10/08 05:13:55;;;;;;;10.60;7.97;;;8.30;86.40;;;;;;5095659;28;20395;-79
2021/10/08 05:16:20;;;;;;;13.82;8.48;;;8.30;86.50;;;;;;5113659;28;20085;-78
2021/10/08 05:18:46;;;;;;;10.88;7.97;;;8.30;86.40;;;;;;5095453;28;20020;-78
2021/10/08 05:21:11;;;;;;;11.90;8.55;;;8.30;86.50;;;;;;5113710;28;20422;-77
2021/10/08 05:23:37;;;;;;;12.57;8.68;;;8.30;86.60;;;;;;5095341;28;21047;-78
2021/10/08 05:26:03;;;;;;;12.23;8.90;;;8.30;86.50;;;;;;5113688;28;20055;-77
2021/10/08 05:28:28;;;;;;;12.73;8.93;;;8.30;86.50;;;;;;5113580;28;20024;-76
2021/10/08 05:30:54;;;;;;;12.85;8.82;;;8.20;86.50;;;;;;5095071;28;20107;-76
2021/10/08 05:33:20;;;;;;;12.27;8.77;;;8.20;86.50;;;;;;5095258;28;20077;-76
2021/10/08 05:35:46;;;;;;;10.90;8.10;;;8.20;86.50;;;;;;5095008;28;20027;-76
2021/10/08 05:38:11;;;;;;;13.65;8.25;;;8.20;86.60;;;;;;5095165;28;20364;-76
2021/10/08 05:40:37;;;;;;;13.45;8.82;;;8.20;86.60;;;;;;5113314;28;20016;-76
2021/10/08 05:43:03;;;;;;;13.23;9.20;;;8.20;86.60;;;;;;5094200;28;20027;-76
2021/10/08 05:45:28;;;;;;;12.35;8.70;;;8.20;86.60;;;;;;5094833;28;20020;-76
2021/10/08 05:47:54;;;;;;;14.45;9.05;;;8.20;86.60;;;;;;5113192;28;20027;-76
2021/10/08 05:50:19;;;;;;;12.15;8.25;;;8.20;86.70;;;;;;5094836;28;20035;-76
2021/10/08 05:52:45;;;;;;;14.07;8.20;;;8.20;86.60;;;;;;5113045;28;20058;-76
2021/10/08 05:55:11;;;;;;;11.73;7.47;;;8.20;86.60;;;;;;5112780;28;20027;-76
2021/10/08 05:57:38;;;;;;;11.02;7.72;;;8.20;86.60;;;;;;5094827;28;20019;-76
2021/10/08 06:00:05;;;;;;;11.05;7.97;;;8.20;86.70;;;;;;5094901;28;20030;-76
2021/10/08 06:02:30;;;;;;;10.35;7.78;;;8.10;86.60;;;;;;5113279;28;20146;-77
2021/10/08 06:04:56;;;;;;;11.40;8.38;;;8.10;86.70;;;;;;5110060;28;20482;-77
2021/10/08 06:07:22;;;;;;;11.18;8.05;;;8.10;86.60;;;;;;5092046;28;20051;-79
2021/10/08 06:09:47;;;;;;;12.35;8.32;;;8.20;86.70;;;;;;5094696;28;20047;-76
2021/10/08 06:12:13;;;;;;;12.73;9.07;;;8.20;87.30;;;;;;5113056;28;20027;-77
2021/10/08 06:14:40;;;;;;;11.57;8.02;;;8.20;86.60;;;;;;5094832;28;20020;-78
2021/10/08 06:17:06;;;;;;;11.45;8.02;;;8.20;86.60;;;;;;5078130;28;20036;-77
2021/10/08 06:19:31;;;;;;;14.20;8.68;;;8.20;86.60;;;;;;5112959;28;20103;-77
2021/10/08 06:21:57;;;;;;;12.40;8.32;;;8.30;86.60;;;;;;5094568;28;20055;-77
2021/10/08 06:24:22;;;;;;;18.70;8.57;;;8.30;86.50;;;;;;5094518;28;20028;-77
2021/10/08 06:26:48;;;;;;;16.02;9.35;;;8.40;86.50;;;;;;5092191;28;20127;-77
2021/10/08 06:29:14;;;;;;;19.02;8.77;;;8.40;86.50;;;;;;5112990;28;20042;-77
2021/10/08 06:31:39;;;;;;;12.00;8.43;;;8.50;86.50;;;;;;5112788;28;20057;-77
2021/10/08 06:34:05;;;;;;;17.77;7.95;;;8.50;86.40;;;;;;5094538;28;20058;-78
2021/10/08 06:36:32;;;;;;;48.75;8.85;;;8.50;86.40;;;;;;5112702;28;20437;-77
2021/10/08 06:38:58;;;;;;;13.52;8.48;;;8.60;86.40;;;;;;5094627;28;20184;-77
2021/10/08 06:41:23;;;;;;;15.45;8.23;;;8.60;86.40;;;;;;5094491;28;20126;-77
2021/10/08 06:43:49;;;;;;;16.17;8.02;;;8.60;86.40;;;;;;5094271;28;20026;-78
2021/10/08 06:46:14;;;;;;;11.95;7.88;;;8.70;86.40;;;;;;5094352;28;20387;-77
2021/10/08 06:48:40;;;;;;;21.38;8.02;;;8.70;86.40;;;;;;5091573;28;20031;-77
2021/10/08 06:51:05;;;;;;;17.50;8.45;;;8.80;86.50;;;;;;5094810;28;20024;-77
2021/10/08 06:53:31;;;;;;;18.67;9.05;;;8.80;86.40;;;;;;5096137;28;20440;-78
2021/10/08 06:55:57;;;;;;;20.75;9.05;;;8.90;86.40;;;;;;5094024;28;20056;-77
2021/10/08 06:58:23;;;;;;;32.35;10.27;;;9.00;86.40;;;;;;5093996;28;20040;-78
2021/10/08 07:00:53;;;;;;;21.52;10.05;;;9.00;86.40;;;;;;5077096;28;20048;-77
2021/10/08 07:03:22;;;;;;;30.88;9.43;;;9.10;86.40;;;;;;5076769;28;20060;-78
2021/10/08 07:05:48;;;;;;;20.42;9.52;;;9.10;86.30;;;;;;5093719;28;20032;-77
2021/10/08 07:08:14;;;;;;;32.03;9.70;;;9.20;86.30;;;;;;5076918;28;20031;-78
2021/10/08 07:10:40;;;;;;;19.80;10.07;;;9.20;86.30;;;;;;5073972;28;20028;-77
2021/10/08 07:13:06;;;;;;;15.90;9.18;;;9.30;86.30;;;;;;5093831;28;20211;-78
2021/10/08 07:15:32;;;;;;;17.23;9.43;;;9.30;86.30;;;;;;5076718;28;20043;-77
2021/10/08 07:17:58;;;;;;;17.00;8.90;;;9.40;86.30;;;;;;5076659;28;20034;-78
2021/10/08 07:20:27;;;;;;;20.88;9.10;;;9.40;86.30;;;;;;5076417;28;20476;-78
2021/10/08 07:22:55;;;;;;;12.63;8.82;;;9.50;86.30;;;;;;5076650;28;20031;-78
2021/10/08 07:25:30;;;;;;;13.07;9.35;;;9.50;86.30;;;;;;5090834;28;20096;-78
2021/10/08 07:27:56;;;;;;;13.27;9.00;;;9.50;86.20;;;;;;5093132;28;20059;-77
2021/10/08 07:30:22;;;;;;;12.18;8.60;;;9.60;86.20;;;;;;5112811;28;20036;-77
2021/10/08 07:32:48;;;;;;;13.52;8.70;;;9.60;86.30;;;;;;5115738;28;20050;-77
2021/10/08 07:35:15;;;;;;;12.95;8.05;;;9.60;86.20;;;;;;5097519;28;20016;-77
2021/10/08 07:37:41;;;;;;;12.52;8.00;;;9.60;86.20;;;;;;5115797;28;20027;-77
2021/10/08 07:40:10;;;;;;;42.97;26.83;;;9.70;86.20;;;;;;5097183;28;20023;-77
2021/10/08 07:42:36;;;;;;;21.08;14.00;;;9.70;86.30;;;;;;5097264;28;20403;-78
2021/10/08 07:45:03;;;;;;;14.15;10.25;;;9.70;86.30;;;;;;5097323;28;20464;-78
2021/10/08 07:47:30;;;;;;;15.52;10.63;;;9.70;86.30;;;;;;5097271;28;20047;-78
2021/10/08 07:49:55;;;;;;;12.40;9.38;;;9.80;86.30;;;;;;5097309;28;20034;-78
2021/10/08 07:52:21;;;;;;;12.32;9.35;;;9.80;86.30;;;;;;5115410;28;20118;-78
2021/10/08 07:54:46;;;;;;;13.27;9.75;;;9.90;86.30;;;;;;5097144;28;20032;-77
2021/10/08 07:57:12;;;;;;;15.13;9.65;;;10.00;86.30;;;;;;5096893;28;20068;-78
2021/10/08 07:59:37;;;;;;;15.30;9.60;;;10.00;86.30;;;;;;5096985;28;20723;-77
2021/10/08 08:02:03;;;;;;;13.73;9.77;;;10.10;86.20;;;;;;5097193;28;20031;-78
2021/10/08 08:04:29;;;;;;;13.95;10.40;;;10.10;86.20;;;;;;5095890;28;20022;-77
2021/10/08 08:06:55;;;;;;;14.00;10.70;;;10.20;86.30;;;;;;5096887;28;20022;-78
2021/10/08 08:09:20;;;;;;;15.02;10.55;;;10.20;86.20;;;;;;5096738;28;20494;-78
2021/10/08 08:11:46;;;;;;;13.93;10.02;;;10.30;86.20;;;;;;5096696;28;20429;-77
2021/10/08 08:14:12;;;;;;;16.55;11.07;;;10.40;86.20;;;;;;5115215;28;20023;-77
2021/10/08 08:16:37;;;;;;;16.88;10.90;;;10.40;86.20;;;;;;5096687;28;20100;-77
2021/10/08 08:19:04;;;;;;;17.27;11.48;;;10.50;86.20;;;;;;5096599;28;20356;-77
2021/10/08 08:21:29;;;;;;;35.53;21.15;;;10.50;86.20;;;;;;5096778;28;20016;-77
2021/10/08 08:23:55;;;;;;;20.30;12.98;;;10.60;86.20;;;;;;5097243;28;20097;-78
2021/10/08 08:26:22;;;;;;;17.35;12.68;;;10.70;86.10;;;;;;5098986;28;20027;-77
2021/10/08 08:28:47;;;;;;;20.20;12.30;;;10.70;86.10;;;;;;5107960;28;20051;-77
2021/10/08 08:31:13;;;;;;;19.02;12.75;;;10.80;86.10;;;;;;5101758;28;20024;-78
2021/10/08 08:33:39;;;;;;;17.08;12.07;;;10.80;86.10;;;;;;5099326;28;20479;-76
2021/10/08 08:36:05;;;;;;;18.90;12.05;;;10.80;86.20;;;;;;5096882;28;20028;-77
2021/10/08 08:38:31;;;;;;;15.82;11.65;;;10.90;86.20;;;;;;5096492;28;20031;-77
2021/10/08 08:40:58;;;;;;;17.20;11.73;;;10.90;86.20;;;;;;5114641;28;20031;-77
2021/10/08 08:43:26;;;;;;;18.55;12.15;;;11.00;86.30;;;;;;5095901;28;20019;-77
2021/10/08 08:45:51;;;;;;;19.23;12.60;;;11.00;86.30;;;;;;5114302;28;20056;-77
2021/10/08 08:48:17;;;;;;;19.70;12.63;;;11.10;86.30;;;;;;5095934;28;20088;-77
2021/10/08 08:50:45;;;;;;;18.38;12.32;;;11.10;86.20;;;;;;5096129;28;20015;-77
2021/10/08 08:53:12;;;;;;;19.70;13.55;;;11.20;86.30;;;;;;5095807;28;20051;-77
2021/10/08 08:55:38;;;;;;;18.77;13.40;;;11.30;86.30;;;;;;5095881;28;20475;-77
2021/10/08 08:58:04;;;;;;;18.50;12.70;;;11.30;86.30;;;;;;5114228;28;20035;-77
2021/10/08 09:00:30;;;;;;;16.55;12.55;;;11.30;86.40;;;;;;5095661;28;20028;-77
2021/10/08 09:06:28;;;;;;;17.50;12.27;;;11.40;86.40;;;;;;5114432;28;20085;-77
2021/10/08 09:08:54;;;;;;;16.42;11.60;;;11.40;86.30;;;;;;5095663;28;20381;-77
2021/10/08 09:11:20;;;;;;;18.10;12.40;;;11.50;86.30;;;;;;5095550;28;20072;-77
2021/10/08 09:13:45;;;;;;;16.75;12.27;;;11.50;86.30;;;;;;5113678;28;20057;-77
2021/10/08 09:16:11;;;;;;;17.58;12.65;;;11.60;86.30;;;;;;5113462;28;20028;-77
2021/10/08 09:18:41;;;;;;;19.70;12.38;;;11.70;86.30;;;;;;5095216;28;20031;-77
2021/10/08 09:21:13;;;;;;;17.48;12.05;;;11.70;86.30;;;;;;5095250;28;20481;-78
2021/10/08 09:23:39;;;;;;;18.30;12.40;;;11.80;86.30;;;;;;5095164;28;20448;-78
2021/10/08 09:26:17;;;;;;;18.70;12.88;;;11.90;86.20;;;;;;5095193;28;20030;-77
2021/10/08 09:28:52;;;;;;;19.85;12.57;;;11.90;86.20;;;;;;5094961;28;20026;-76
2021/10/08 09:31:18;;;;;;;18.60;12.70;;;12.00;86.30;;;;;;5113193;28;20502;-76
2021/10/08 09:33:44;;;;;;;17.35;11.98;;;12.00;86.20;;;;;;5113295;28;20024;-76
2021/10/08 09:36:15;;;;;;;17.33;12.07;;;12.10;86.20;;;;;;5113276;28;20035;-77
2021/10/08 09:38:46;;;;;;;16.15;11.63;;;12.20;86.20;;;;;;5094909;28;20016;-77
2021/10/08 09:41:12;;;;;;;15.98;11.18;;;12.30;86.20;;;;;;5095043;28;20040;-76
2021/10/08 09:43:38;;;;;;;17.02;11.60;;;12.40;86.10;;;;;;5095232;28;20170;-76
2021/10/08 09:46:05;;;;;;;19.50;12.43;;;12.50;86.00;;;;;;5094817;28;20026;-76
2021/10/08 09:48:30;;;;;;;15.57;11.00;;;12.60;86.00;;;;;;5113057;28;20027;-77
2021/10/08 09:51:07;;;;;;;17.55;11.35;;;12.70;86.00;;;;;;5094725;28;20024;-76
2021/10/08 09:53:36;;;;;;;18.88;11.85;;;12.70;85.90;;;;;;5094585;28;20474;-77
2021/10/08 09:56:02;;;;;;;18.13;11.38;;;12.80;85.90;;;;;;5094809;28;20020;-77
2021/10/08 09:58:49;;;;;;;19.70;12.15;;;12.90;85.90;;;;;;5112917;28;20028;-77
2021/10/08 10:01:27;;;;;;;19.58;11.38;;;13.00;85.90;;;;;;5112933;28;20096;-77
2021/10/08 10:03:54;;;;;;;16.77;11.27;;;13.00;85.80;;;;;;5112881;28;20035;-76
2021/10/08 10:06:20;;;;;;;21.05;12.93;;;13.20;85.80;;;;;;5094465;28;20026;-77
2021/10/08 10:08:47;;;;;;;19.40;11.77;;;13.30;85.70;;;;;;5094592;28;20034;-76
2021/10/08 10:11:18;;;;;;;19.52;10.98;;;13.40;85.60;;;;;;5112820;28;20012;-77
2021/10/08 10:13:46;;;;;;;19.38;12.35;;;13.50;85.40;;;;;;5112909;28;20024;-76
2021/10/08 10:16:14;;;;;;;18.75;10.75;;;13.60;85.30;;;;;;5095145;28;20020;-76
2021/10/08 10:18:40;;;;;;;21.65;12.60;;;13.70;85.20;;;;;;5094191;28;20484;-76
2021/10/08 10:21:06;;;;;;;17.25;12.07;;;13.80;85.10;;;;;;5112857;28;20039;-77
2021/10/08 10:23:32;;;;;;;19.77;11.45;;;13.90;85.00;;;;;;5112648;28;20024;-77
2021/10/08 10:25:58;;;;;;;17.88;11.05;;;13.90;84.90;;;;;;5094448;28;20023;-76
2021/10/08 10:28:24;;;;;;;16.52;11.77;;;14.00;84.80;;;;;;5096496;28;20034;-77
2021/10/08 10:30:51;;;;;;;18.00;11.70;;;14.10;84.70;;;;;;5116980;28;20475;-76
2021/10/08 10:33:24;;;;;;;18.55;11.82;;;14.20;84.70;;;;;;5098190;28;20080;-77
2021/10/08 10:35:51;;;;;;;15.32;10.27;;;14.30;84.50;;;;;;5098343;28;20016;-77
2021/10/08 10:38:24;;;;;;;14.18;9.80;;;14.30;84.40;;;;;;5098366;28;20030;-77
2021/10/08 10:41:20;;;;;;;14.77;9.83;;;14.40;84.30;;;;;;5116606;28;20026;-77
2021/10/08 10:43:52;;;;;;;15.63;9.68;;;14.50;84.20;;;;;;5116473;28;20487;-78
2021/10/08 10:52:53;;;;;;;14.25;9.90;;;14.70;83.80;;;;;;5116586;28;20047;-77
2021/10/08 10:55:21;;;;;;;13.52;9.35;;;14.80;83.70;;;;;;5095230;28;20028;-77
2021/10/08 10:57:49;;;;;;;11.70;8.43;;;14.90;83.60;;;;;;5116290;28;20024;-78
2021/10/08 11:00:29;;;;;;;11.02;8.70;;;14.90;83.50;;;;;;5098099;28;20429;-78
2021/10/08 11:03:07;;;;;;;12.85;8.63;;;15.00;83.30;;;;;;5116119;28;20028;-77
2021/10/08 11:05:37;;;;;;;11.75;8.80;;;15.10;83.10;;;;;;5113225;28;20024;-77
2021/10/08 11:08:14;;;;;;;11.93;7.95;;;15.10;83.00;;;;;;5116119;28;20020;-78
2021/10/08 11:11:06;;;;;;;11.32;8.18;;;15.10;82.80;;;;;;5073208;28;20459;-77
2021/10/08 11:13:34;;;;;;;10.88;8.02;;;15.20;82.70;;;;;;5073325;28;20028;-77
2021/10/08 11:16:06;;;;;;;9.10;7.63;;;15.30;82.60;;;;;;5073249;28;20029;-78
2021/10/08 11:18:43;;;;;;;12.30;7.88;;;15.30;83.00;;;;;;5072894;28;20036;-77
2021/10/08 11:24:29;;;;;;;10.07;7.30;;;15.40;81.80;;;;;;5073504;28;20446;-76
2021/10/08 11:27:00;;;;;;;9.00;7.20;;;15.50;81.70;;;;;;5073229;28;20124;-78
2021/10/08 11:29:30;;;;;;;7.60;6.38;;;15.60;81.60;;;;;;5073040;28;20507;-78
2021/10/08 11:31:59;;;;;;;7.82;5.95;;;15.60;81.30;;;;;;5056352;28;20178;-78
2021/10/08 11:34:24;;;;;;;9.85;6.57;;;15.70;81.10;;;;;;5072705;28;20138;-77
2021/10/08 11:36:57;;;;;;;10.63;6.43;;;15.70;80.90;;;;;;5072840;28;20175;-78
2021/10/08 11:39:25;;;;;;;7.20;5.22;;;15.70;80.50;;;;;;5072654;28;20025;-77
2021/10/08 11:42:14;;;;;;;6.47;4.70;;;15.80;80.40;;;;;;5088413;28;20066;-77
2021/10/08 11:45:04;;;;;;;5.35;4.05;;;15.90;80.00;;;;;;5094582;28;20039;-78
2021/10/08 11:47:39;;;;;;;4.70;3.67;;;16.00;79.70;;;;;;5115393;28;20490;-78
2021/10/08 11:52:55;;;;;;;5.53;4.10;;;16.10;79.10;;;;;;5115278;28;20109;-78
2021/10/08 11:58:43;;;;;;;4.90;3.67;;;16.30;78.40;;;;;;5115343;28;20034;-79
2021/10/08 12:01:19;;;;;;;4.18;3.30;;;16.50;78.10;;;;;;5115189;28;20402;-78
2021/10/08 12:03:45;;;;;;;3.70;3.08;;;16.60;77.60;;;;;;5096746;28;20483;-78
2021/10/08 12:06:11;;;;;;;3.17;2.88;;;16.70;77.50;;;;;;5115304;28;20020;-78
2021/10/08 12:08:38;;;;;;;3.63;3.10;;;16.70;77.30;;;;;;5096683;28;20091;-78
2021/10/08 12:11:08;;;;;;;3.42;3.10;;;16.80;77.00;;;;;;5114855;28;20020;-78
2021/10/08 12:13:34;;;;;;;5.68;2.97;;;16.80;76.50;;;;;;5114689;28;20035;-77
2021/10/08 12:16:01;;;;;;;3.15;2.40;;;16.90;76.30;;;;;;5096566;28;20028;-78
2021/10/08 12:18:27;;;;;;;4.55;2.58;;;16.90;75.90;;;;;;5115039;28;20036;-78
2021/10/08 12:21:14;;;;;;;3.03;2.33;;;16.90;74.70;;;;;;5096508;28;20074;-78
2021/10/08 12:23:41;;;;;;;2.13;1.90;;;16.90;74.10;;;;;;5096320;28;20475;-78
2021/10/08 12:26:07;;;;;;;2.20;2.00;;;16.90;74.30;;;;;;5114570;28;20027;-77
2021/10/08 12:28:33;;;;;;;2.63;2.15;;;17.00;74.30;;;;;;5096199;28;20042;-78
2021/10/08 12:30:58;;;;;;;2.78;2.10;;;17.10;73.80;;;;;;5093209;28;20114;-77
2021/10/08 12:33:30;;;;;;;2.30;1.90;;;17.10;73.70;;;;;;5096246;28;20519;-78
2021/10/08 12:36:28;;;;;;;2.30;1.80;;;17.20;73.40;;;;;;5114699;28;20024;-78
2021/10/08 12:39:08;;;;;;;1.88;1.67;;;17.20;73.10;;;;;;5114469;28;20090;-78
2021/10/08 12:41:50;;;;;;;3.47;1.83;;;17.20;72.60;;;;;;5096047;28;20057;-77
2021/10/08 12:44:24;;;;;;;2.35;1.85;;;17.30;72.40;;;;;;5095893;28;20047;-77
2021/10/08 12:47:13;;;;;;;2.08;1.73;;;17.30;72.00;;;;;;5095889;28;20102;-77
2021/10/08 12:49:59;;;;;;;2.33;1.95;;;17.40;72.10;;;;;;5114497;28;20062;-77
2021/10/08 12:52:50;;;;;;;2.25;2.05;;;17.40;71.30;;;;;;5095170;28;20063;-77
2021/10/08 12:55:18;;;;;;;1.73;1.63;;;17.40;71.10;;;;;;5095624;28;20398;-78
2021/10/08 12:58:25;;;;;;;2.35;1.83;;;17.50;71.20;;;;;;5095584;28;20020;-79
2021/10/08 13:00:57;;;;;;;1.92;1.60;;;17.50;71.00;;;;;;5095389;28;20068;-77
2021/10/08 13:03:35;;;;;;;2.65;2.28;;;17.60;71.20;;;;;;5095616;28;20046;-77
2021/10/08 13:06:03;;;;;;;3.20;2.40;;;17.60;71.00;;;;;;5095577;28;20042;-77